Kamenomostskiy, Russia
Current Conditions -  °F | °C
As of 3:30 PM on Friday 24 Oct 2014 (Local Time) from URSS Reporting Station
Broken Clouds Broken Clouds  
Wind Chill: 70°   Ceiling: 12000
Heat Index: 70°   Visibility: 6mi
Dew Point: 50°   Wind: 4mph
Humidity: 49%   Direction: 110°ESE
Pressure: 29.94"   Gusts: NA
Location:  44.18°N, 40.14°E
Report Text: URSS 241230Z 11002MPS 9999 BKN120 21/10 Q1014 NOSIG RMKR06/09003MPS QFE759 02000070 06000070
Loading
Personal Weather Stations






























Interactive Weather Map
Tropical Storm Tracking
New forecast layout! Learn more

10-Day Weather Forecast

Advertisements
Track Severe Weather on mobile